Time;durP1;ratioP1;P1;durP2;ratioP2;P2;SDS_P1;SDS_P2;PMS_P1;PMS_P2;Temp;Humidity;BMP_temperature;BMP_pressure;BME280_temperature;BME280_humidity;BME280_pressure;Samples;Min_cycle;Max_cycle;Signal;HPM_P1;HPM_P2
2022/01/22 00:01:58;;;;;;;;;;;;;;;;;;5107468;27;1219;-77
2022/01/22 00:04:23;;;;;;;;;;;;;;;;;;5102043;28;1173;-76
2022/01/22 00:07:01;;;;;;;;;;;;;;;;;;5125582;27;1223;-77
2022/01/22 00:09:28;;;;;;;;;;;;;;;;;;5069994;28;1889;-77
2022/01/22 00:11:54;;;;;;;;;;;;;;;;;;5084972;28;1365;-77
2022/01/22 00:14:24;;;;;;;;;;;;;;;;;;5083785;28;1657;-77
2022/01/22 00:16:57;;;;;;;;;;;;;;;;;;5086068;28;1350;-77
2022/01/22 00:19:23;;;;;;;;;;;;;;;;;;5117204;28;1033;-77
2022/01/22 00:21:55;;;;;;;;;;;;;;;;;;5125483;28;1069;-77
2022/01/22 00:24:21;;;;;;;;;;;;;;;;;;5086988;28;1366;-77
2022/01/22 00:26:48;;;;;;;;;;;;;;;;;;5112366;27;1175;-77
2022/01/22 00:29:16;;;;;;;;;;;;;;;;;;5101540;28;1886;-77
2022/01/22 00:31:42;;;;;;;;;;;;;;;;;;5107768;28;1083;-76
2022/01/22 00:34:08;;;;;;;;;;;;;;;;;;5107236;28;1179;-77
2022/01/22 00:36:33;;;;;;;;;;;;;;;;;;5088245;28;1463;-77
2022/01/22 00:38:58;;;;;;;;;;;;;;;;;;5090205;28;1300;-76
2022/01/22 00:41:24;;;;;;;;;;;;;;;;;;5106249;28;1230;-77
2022/01/22 00:43:50;;;;;;;;;;;;;;;;;;5089140;28;1238;-78
2022/01/22 00:46:16;;;;;;;;;;;;;;;;;;5088734;28;1196;-76
2022/01/22 00:48:42;;;;;;;;;;;;;;;;;;5109564;28;1898;-76
2022/01/22 00:51:07;;;;;;;;;;;;;;;;;;5075484;28;1412;-76
2022/01/22 00:53:32;;;;;;;;;;;;;;;;;;5104427;28;1085;-77
2022/01/22 00:55:58;;;;;;;;;;;;;;;;;;5088756;28;1101;-76
2022/01/22 00:58:23;;;;;;;;;;;;;;;;;;5085507;28;1414;-77
2022/01/22 01:00:49;;;;;;;;;;;;;;;;;;5094304;28;1211;-76
2022/01/22 01:03:17;;;;;;;;;;;;;;;;;;5070594;28;1351;-77
2022/01/22 01:05:42;;;;;;;;;;;;;;;;;;5071298;28;1326;-76
2022/01/22 01:08:08;;;;;;;;;;;;;;;;;;5089333;27;1999;-77
2022/01/22 01:10:33;;;;;;;;;;;;;;;;;;5110692;27;1266;-76
2022/01/22 01:12:58;;;;;;;;;;;;;;;;;;5121523;27;1171;-77
2022/01/22 01:34:22;;;;;;;;;;;;;;;;;;5090826;28;1275;-76
2022/01/22 01:36:58;;;;;;;;;;;;;;;;;;5088577;28;1238;-78
2022/01/22 01:39:31;;;;;;;;;;;;;;;;;;5086715;28;1447;-77
2022/01/22 01:42:02;;;;;;;;;;;;;;;;;;5087027;28;1362;-77
2022/01/22 01:44:28;;;;;;;;;;;;;;;;;;5083006;28;1305;-76
2022/01/22 01:46:56;;;;;;;;;;;;;;;;;;5130067;28;1218;-77
2022/01/22 01:49:22;;;;;;;;;;;;;;;;;;5087184;28;1898;-78
2022/01/22 01:51:55;;;;;;;;;;;;;;;;;;5088003;28;1216;-76
2022/01/22 01:59:34;;;;;;;;;;;;;;;;;;5109969;28;996;-77
2022/01/22 02:01:59;;;;;;;;;;;;;;;;;;5089247;28;1314;-76
2022/01/22 02:04:24;;;;;;;;;;;;;;;;;;5123882;28;1153;-77
2022/01/22 02:06:59;;;;;;;;;;;;;;;;;;5090691;28;1167;-76
2022/01/22 02:09:25;;;;;;;;;;;;;;;;;;5123079;28;1893;-78
2022/01/22 02:11:59;;;;;;;;;;;;;;;;;;5108111;28;1175;-78
2022/01/22 02:25:17;;;;;;;;;;;;;;;;;;5090047;28;1024;-77
2022/01/22 02:27:42;;;;;;;;;;;;;;;;;;5067498;28;1357;-76
2022/01/22 02:30:08;;;;;;;;;;;;;;;;;;5104661;28;1955;-77
2022/01/22 02:35:26;;;;;;;;;;;;;;;;;;5120090;28;972;-78
2022/01/22 02:37:58;;;;;;;;;;;;;;;;;;5103223;28;1124;-77
2022/01/22 02:40:29;;;;;;;;;;;;;;;;;;5042139;28;1263765;-77
2022/01/22 02:42:54;;;;;;;;;;;;;;;;;;5084566;27;1290;-77
2022/01/22 02:45:24;;;;;;;;;;;;;;;;;;5109428;27;1116;-78
2022/01/22 02:47:53;;;;;;;;;;;;;;;;;;5070217;28;1227;-77
2022/01/22 02:50:26;;;;;;;;;;;;;;;;;;5071581;28;1906;-78
2022/01/22 02:52:51;;;;;;;;;;;;;;;;;;5095325;27;1294;-77
2022/01/22 02:55:16;;;;;;;;;;;;;;;;;;5108926;27;1391;-76
2022/01/22 02:57:43;;;;;;;;;;;;;;;;;;5106272;27;1175;-76
2022/01/22 03:00:11;;;;;;;;;;;;;;;;;;5107874;28;1264;-77
2022/01/22 03:02:37;;;;;;;;;;;;;;;;;;5096187;27;1100;-77
2022/01/22 03:05:02;;;;;;;;;;;;;;;;;;5099959;28;1186;-77
2022/01/22 03:07:28;;;;;;;;;;;;;;;;;;5102670;28;1187;-78
2022/01/22 03:10:00;;;;;;;;;;;;;;;;;;5070241;28;1953;-78
2022/01/22 03:21:14;;;;;;;;;;;;;;;;;;5031124;28;1208;-78
2022/01/22 03:28:33;;;;;;;;;;;;;;;;;;5104099;28;1924;-77
2022/01/22 03:30:58;;;;;;;;;;;;;;;;;;5103560;27;1055;-77
2022/01/22 03:33:33;;;;;;;;;;;;;;;;;;5104215;27;1179;-75
2022/01/22 03:35:59;;;;;;;;;;;;;;;;;;5098325;28;1222;-76
2022/01/22 03:38:28;;;;;;;;;;;;;;;;;;5083747;28;1136;-76
2022/01/22 03:40:54;;;;;;;;;;;;;;;;;;5086538;28;1305;-76
2022/01/22 03:43:20;;;;;;;;;;;;;;;;;;5086621;28;1262;-77
2022/01/22 03:45:45;;;;;;;;;;;;;;;;;;5083922;28;1236;-77
2022/01/22 03:48:11;;;;;;;;;;;;;;;;;;5068347;28;1914;-77
2022/01/22 03:50:36;;;;;;;;;;;;;;;;;;5085197;28;1275;-77
2022/01/22 03:53:01;;;;;;;;;;;;;;;;;;5096435;27;1140;-77
2022/01/22 03:55:46;;;;;;;;;;;;;;;;;;5105408;27;1407;-77
2022/01/22 03:58:11;;;;;;;;;;;;;;;;;;5113924;27;1107;-76
2022/01/22 04:00:37;;;;;;;;;;;;;;;;;;5071708;28;1175;-77
2022/01/22 04:08:30;;;;;;;;;;;;;;;;;;5102063;28;1882;-77
2022/01/22 04:10:56;;;;;;;;;;;;;;;;;;5094713;28;1278;-78
2022/01/22 04:13:29;;;;;;;;;;;;;;;;;;5123451;28;1171;-77
2022/01/22 04:15:54;;;;;;;;;;;;;;;;;;5075468;28;1433;-76
2022/01/22 04:26:52;;;;;;;;;;;;;;;;;;5089101;28;984;-78
2022/01/22 04:29:17;;;;;;;;;;;;;;;;;;5087213;28;1949;-76
2022/01/22 04:31:43;;;;;;;;;;;;;;;;;;5088704;28;1165;-76
2022/01/22 04:34:08;;;;;;;;;;;;;;;;;;5068934;28;1196;-77
2022/01/22 04:36:33;;;;;;;;;;;;;;;;;;5104184;28;1143;-77
2022/01/22 04:38:58;;;;;;;;;;;;;;;;;;5072642;28;1309;-76
2022/01/22 04:41:24;;;;;;;;;;;;;;;;;;5075199;28;1268;-77
2022/01/22 04:43:56;;;;;;;;;;;;;;;;;;5102083;28;1151;-77
2022/01/22 04:46:34;;;;;;;;;;;;;;;;;;5104308;28;1298;-77
2022/01/22 04:52:25;;;;;;;;;;;;;;;;;;5123564;28;1947;-77
2022/01/22 04:57:26;;;;;;;;;;;;;;;;;;5088188;28;1016;-77
2022/01/22 04:59:51;;;;;;;;;;;;;;;;;;5068368;28;1260;-76
2022/01/22 05:02:16;;;;;;;;;;;;;;;;;;5105722;28;1194;-77
2022/01/22 05:04:42;;;;;;;;;;;;;;;;;;5083674;28;1463;-77
2022/01/22 05:07:09;;;;;;;;;;;;;;;;;;5066566;28;1164;-76
2022/01/22 05:09:37;;;;;;;;;;;;;;;;;;5084703;28;1947;-77
2022/01/22 05:12:04;;;;;;;;;;;;;;;;;;5069967;28;1200;-77
2022/01/22 05:14:34;;;;;;;;;;;;;;;;;;5071888;28;1240;-77
2022/01/22 05:17:03;;;;;;;;;;;;;;;;;;5070401;28;1298;-77
2022/01/22 05:22:00;;;;;;;;;;;;;;;;;;5104931;27;1167;-76
2022/01/22 05:24:30;;;;;;;;;;;;;;;;;;5087504;28;1306;-77
2022/01/22 05:37:26;;;;;;;;;;;;;;;;;;5092971;28;1039;-77
2022/01/22 05:39:51;;;;;;;;;;;;;;;;;;5071437;28;1291;-77
2022/01/22 05:42:16;;;;;;;;;;;;;;;;;;5070511;28;1176;-77
2022/01/22 05:44:42;;;;;;;;;;;;;;;;;;5068995;28;1502;-77
2022/01/22 05:47:07;;;;;;;;;;;;;;;;;;5071689;28;1302;-77
2022/01/22 05:49:37;;;;;;;;;;;;;;;;;;5105180;27;1961;-77
2022/01/22 05:52:06;;;;;;;;;;;;;;;;;;5106248;27;1325;-76
2022/01/22 05:54:50;;;;;;;;;;;;;;;;;;5092051;27;1231;-77
2022/01/22 05:59:59;;;;;;;;;;;;;;;;;;5125473;27;1032;-77
2022/01/22 06:02:24;;;;;;;;;;;;;;;;;;5091997;27;1215;-77
2022/01/22 06:04:50;;;;;;;;;;;;;;;;;;5125794;27;1226;-76
2022/01/22 06:07:16;;;;;;;;;;;;;;;;;;5095215;27;1195;-76
2022/01/22 06:09:54;;;;;;;;;;;;;;;;;;5070156;28;1886;-77
2022/01/22 06:12:38;;;;;;;;;;;;;;;;;;5073625;28;1353;-77
2022/01/22 06:15:04;;;;;;;;;;;;;;;;;;5073760;28;1116;-77
2022/01/22 06:17:29;;;;;;;;;;;;;;;;;;5104924;27;1148;-77
2022/01/22 06:19:55;;;;;;;;;;;;;;;;;;5106764;27;1255;-76
2022/01/22 06:22:20;;;;;;;;;;;;;;;;;;5082090;28;1343;-77
2022/01/22 06:24:45;;;;;;;;;;;;;;;;;;5097535;27;1444;-76
2022/01/22 06:27:11;;;;;;;;;;;;;;;;;;5090368;27;1249;-77
2022/01/22 06:29:37;;;;;;;;;;;;;;;;;;5108366;27;1878;-77
2022/01/22 06:32:03;;;;;;;;;;;;;;;;;;5077615;28;1343;-77
2022/01/22 06:34:28;;;;;;;;;;;;;;;;;;5077080;28;1267;-76
2022/01/22 06:36:55;;;;;;;;;;;;;;;;;;5122145;27;1019;-76
2022/01/22 06:39:22;;;;;;;;;;;;;;;;;;5065046;28;1276;-77
2022/01/22 06:41:52;;;;;;;;;;;;;;;;;;5088954;28;984;-75
2022/01/22 06:44:20;;;;;;;;;;;;;;;;;;5084147;28;1384;-77
2022/01/22 06:46:47;;;;;;;;;;;;;;;;;;5099407;28;1187;-77
2022/01/22 06:49:13;;;;;;;;;;;;;;;;;;5098121;28;1909;-76
2022/01/22 06:51:42;;;;;;;;;;;;;;;;;;5082917;28;1418;-77
2022/01/22 06:54:07;;;;;;;;;;;;;;;;;;5064952;28;1369;-77
2022/01/22 06:56:33;;;;;;;;;;;;;;;;;;5083535;28;1206;-76
2022/01/22 06:58:58;;;;;;;;;;;;;;;;;;5079273;28;1187;-76
2022/01/22 07:01:24;;;;;;;;;;;;;;;;;;5083857;28;1457;-76
2022/01/22 07:03:51;;;;;;;;;;;;;;;;;;5082164;28;1061;-76
2022/01/22 07:06:16;;;;;;;;;;;;;;;;;;5068430;28;1195;-76
2022/01/22 07:08:42;;;;;;;;;;;;;;;;;;5097755;28;1886;-77
2022/01/22 07:11:08;;;;;;;;;;;;;;;;;;5102957;28;1278;-77
2022/01/22 07:13:34;;;;;;;;;;;;;;;;;;5084036;28;1278;-76
2022/01/22 07:15:59;;;;;;;;;;;;;;;;;;5101975;28;1289;-77
2022/01/22 07:18:25;;;;;;;;;;;;;;;;;;5102449;28;1140;-76
2022/01/22 07:20:52;;;;;;;;;;;;;;;;;;5101900;28;1257;-76
2022/01/22 07:25:46;;;;;;;;;;;;;;;;;;5102818;28;1170;-77
2022/01/22 07:28:11;;;;;;;;;;;;;;;;;;5104368;28;1894;-77
2022/01/22 07:30:38;;;;;;;;;;;;;;;;;;5087333;28;1209;-76
2022/01/22 07:33:03;;;;;;;;;;;;;;;;;;5104350;28;1092;-77
2022/01/22 07:35:28;;;;;;;;;;;;;;;;;;5103823;28;1288;-77
2022/01/22 07:37:54;;;;;;;;;;;;;;;;;;5089649;28;1201;-77
2022/01/22 07:40:19;;;;;;;;;;;;;;;;;;5097767;28;1278;-76
2022/01/22 07:42:45;;;;;;;;;;;;;;;;;;5068733;28;1298;-76
2022/01/22 07:45:10;;;;;;;;;;;;;;;;;;5086820;28;1432;-77
2022/01/22 07:47:36;;;;;;;;;;;;;;;;;;5087124;28;1195;-76
2022/01/22 07:50:02;;;;;;;;;;;;;;;;;;5104232;28;1909;-76
2022/01/22 07:52:28;;;;;;;;;;;;;;;;;;5103418;28;1171;-76
2022/01/22 07:54:53;;;;;;;;;;;;;;;;;;5085373;28;1171;-75
2022/01/22 07:57:18;;;;;;;;;;;;;;;;;;5087736;28;1239;-77
2022/01/22 07:59:49;;;;;;;;;;;;;;;;;;5088014;28;1344;-75
2022/01/22 08:02:15;;;;;;;;;;;;;;;;;;5086748;28;1306;-76
2022/01/22 08:04:40;;;;;;;;;;;;;;;;;;5088156;28;1203;-75
2022/01/22 08:07:05;;;;;;;;;;;;;;;;;;5067817;28;1231;-76
2022/01/22 08:09:31;;;;;;;;;;;;;;;;;;5069370;28;1894;-76
2022/01/22 08:11:56;;;;;;;;;;;;;;;;;;5084852;28;1418;-76
2022/01/22 08:14:21;;;;;;;;;;;;;;;;;;5069569;28;1212;-75
2022/01/22 08:16:50;;;;;;;;;;;;;;;;;;5071361;28;1444;-76
2022/01/22 08:19:17;;;;;;;;;;;;;;;;;;5085951;28;1282;-76
2022/01/22 08:21:42;;;;;;;;;;;;;;;;;;5088668;28;1290;-76
2022/01/22 08:24:08;;;;;;;;;;;;;;;;;;5101598;28;1195;-75
2022/01/22 08:26:38;;;;;;;;;;;;;;;;;;5104498;28;1148;-76
2022/01/22 08:29:03;;;;;;;;;;;;;;;;;;5102215;28;1889;-78
2022/01/22 08:36:39;;;;;;;;;;;;;;;;;;5105732;28;999;-79
2022/01/22 08:39:04;;;;;;;;;;;;;;;;;;5102487;28;1446;-78
2022/01/22 08:41:30;;;;;;;;;;;;;;;;;;5086270;28;1387;-79
2022/01/22 08:43:57;;;;;;;;;;;;;;;;;;5101833;28;1119;-78
2022/01/22 08:46:23;;;;;;;;;;;;;;;;;;5070432;28;1250;-78
2022/01/22 08:48:49;;;;;;;;;;;;;;;;;;5090050;28;1910;-79
2022/01/22 08:51:14;;;;;;;;;;;;;;;;;;5090038;27;1152;-78
2022/01/22 08:53:40;;;;;;;;;;;;;;;;;;5128276;27;1092;-78
2022/01/22 08:56:07;;;;;;;;;;;;;;;;;;5127604;27;1108;-77
2022/01/22 08:58:33;;;;;;;;;;;;;;;;;;5110728;27;1193;-77
2022/01/22 09:00:58;;;;;;;;;;;;;;;;;;5091006;27;1210;-78
2022/01/22 09:03:24;;;;;;;;;;;;;;;;;;5129261;27;1100;-78
2022/01/22 09:05:59;;;;;;;;;;;;;;;;;;5105830;28;1251;-78
2022/01/22 09:08:26;;;;;;;;;;;;;;;;;;5073120;28;1901;-77
2022/01/22 09:10:55;;;;;;;;;;;;;;;;;;5090562;28;1427;-77
2022/01/22 09:13:21;;;;;;;;;;;;;;;;;;5084847;27;1298;-77
2022/01/22 09:15:47;;;;;;;;;;;;;;;;;;5129779;27;1163;-77
2022/01/22 09:18:12;;;;;;;;;;;;;;;;;;5104396;28;1152;-78
2022/01/22 09:23:04;;;;;;;;;;;;;;;;;;5126874;27;1060;-78
2022/01/22 09:25:29;;;;;;;;;;;;;;;;;;5097066;28;1320;-76
2022/01/22 09:27:55;;;;;;;;;;;;;;;;;;5088781;28;1258;-78
2022/01/22 09:30:21;;;;;;;;;;;;;;;;;;5090475;28;1944;-77
2022/01/22 09:32:46;;;;;;;;;;;;;;;;;;5090327;28;1273;-78
2022/01/22 09:35:12;;;;;;;;;;;;;;;;;;5097617;27;1274;-79
2022/01/22 09:37:37;;;;;;;;;;;;;;;;;;5128152;27;1203;-77
2022/01/22 09:40:02;;;;;;;;;;;;;;;;;;5091591;27;1326;-79
2022/01/22 09:42:28;;;;;;;;;;;;;;;;;;5109495;27;1280;-78
2022/01/22 09:44:56;;;;;;;;;;;;;;;;;;5092204;28;1231;-79
2022/01/22 09:47:21;;;;;;;;;;;;;;;;;;5088054;28;1229;-80
2022/01/22 09:49:47;;;;;;;;;;;;;;;;;;5072647;28;1905;-79
2022/01/22 09:52:13;;;;;;;;;;;;;;;;;;5106672;27;1024;-80
2022/01/22 09:54:38;;;;;;;;;;;;;;;;;;5128629;27;1140;-78
2022/01/22 09:57:04;;;;;;;;;;;;;;;;;;5130106;27;1333;-79
2022/01/22 09:59:30;;;;;;;;;;;;;;;;;;5115015;27;1358;-79
2022/01/22 10:02:12;;;;;;;;;;;;;;;;;;5110084;27;1297;-79
2022/01/22 10:04:38;;;;;;;;;;;;;;;;;;5110418;27;1287;-79
2022/01/22 10:07:04;;;;;;;;;;;;;;;;;;5108066;27;1177;-80
2022/01/22 10:09:46;;;;;;;;;;;;;;;;;;5108635;27;1889;-79
2022/01/22 10:12:20;;;;;;;;;;;;;;;;;;5082388;27;1392;-80
2022/01/22 10:15:03;;;;;;;;;;;;;;;;;;5093662;27;1355;-80
2022/01/22 10:17:38;;;;;;;;;;;;;;;;;;5125286;27;1167;-80
2022/01/22 10:20:03;;;;;;;;;;;;;;;;;;5125082;27;1179;-79
2022/01/22 10:22:41;;;;;;;;;;;;;;;;;;5107790;27;1211;-80
2022/01/22 10:25:18;;;;;;;;;;;;;;;;;;5105705;27;1285;-80
2022/01/22 10:27:47;;;;;;;;;;;;;;;;;;5107948;27;1183;-80
2022/01/22 10:30:18;;;;;;;;;;;;;;;;;;5095694;28;1889;-79
2022/01/22 10:35:15;;;;;;;;;;;;;;;;;;5107274;28;1110;-78
2022/01/22 10:37:40;;;;;;;;;;;;;;;;;;5087200;28;1239;-79
2022/01/22 10:40:18;;;;;;;;;;;;;;;;;;5085000;28;1257;-76
2022/01/22 10:42:43;;;;;;;;;;;;;;;;;;5086538;28;1235;-79
2022/01/22 10:45:12;;;;;;;;;;;;;;;;;;5100163;27;1305;-79
2022/01/22 10:47:38;;;;;;;;;;;;;;;;;;5126487;27;1179;-79
2022/01/22 10:50:20;;;;;;;;;;;;;;;;;;5125136;27;1972;-79
2022/01/22 10:52:47;;;;;;;;;;;;;;;;;;5106041;27;1367;-79
2022/01/22 10:55:12;;;;;;;;;;;;;;;;;;5106432;27;1262;-80
2022/01/22 10:57:38;;;;;;;;;;;;;;;;;;5082762;28;1304;-80
2022/01/22 11:00:03;;;;;;;;;;;;;;;;;;5085670;28;1297;-79
2022/01/22 11:02:36;;;;;;;;;;;;;;;;;;5106261;28;1196;-80
2022/01/22 11:05:03;;;;;;;;;;;;;;;;;;5099768;27;1186;-80
2022/01/22 11:07:28;;;;;;;;;;;;;;;;;;5089629;28;1152;-80
2022/01/22 11:09:54;;;;;;;;;;;;;;;;;;5129333;27;1877;-80
2022/01/22 11:12:21;;;;;;;;;;;;;;;;;;5096466;28;1303;-80
2022/01/22 11:14:46;;;;;;;;;;;;;;;;;;5071376;28;1225;-79
2022/01/22 11:17:12;;;;;;;;;;;;;;;;;;5067887;28;1136;-77
2022/01/22 11:19:38;;;;;;;;;;;;;;;;;;5081771;28;1188;-77
2022/01/22 11:22:05;;;;;;;;;;;;;;;;;;5085414;27;1313;-77
2022/01/22 11:24:33;;;;;;;;;;;;;;;;;;5096708;28;1278;-79
2022/01/22 11:27:06;;;;;;;;;;;;;;;;;;5111628;27;1393;-81
2022/01/22 11:29:35;;;;;;;;;;;;;;;;;;5094397;28;1898;-79
2022/01/22 11:32:11;;;;;;;;;;;;;;;;;;5099290;27;1313;-79
2022/01/22 11:34:37;;;;;;;;;;;;;;;;;;5127468;27;1100;-79
2022/01/22 11:37:05;;;;;;;;;;;;;;;;;;5089472;28;1259;-79
2022/01/22 11:39:31;;;;;;;;;;;;;;;;;;5118278;27;1403;-78
2022/01/22 11:41:58;;;;;;;;;;;;;;;;;;5125111;27;1385;-82
2022/01/22 11:44:30;;;;;;;;;;;;;;;;;;5100070;28;1246;-79
2022/01/22 11:47:27;;;;;;;;;;;;;;;;;;5086865;28;1229;-80
2022/01/22 11:50:15;;;;;;;;;;;;;;;;;;5055194;28;1989;-79
2022/01/22 11:52:41;;;;;;;;;;;;;;;;;;5084414;28;1104;-79
2022/01/22 11:55:17;;;;;;;;;;;;;;;;;;5070022;28;1365;-79
2022/01/22 11:57:43;;;;;;;;;;;;;;;;;;5089068;28;1473;-78
2022/01/22 12:00:24;;;;;;;;;;;;;;;;;;5115278;27;1176;-78
2022/01/22 12:03:08;;;;;;;;;;;;;;;;;;5124209;27;1160;-90
2022/01/22 12:05:33;;;;;;;;;;;;;;;;;;5095890;28;1429;-83
2022/01/22 12:07:59;;;;;;;;;;;;;;;;;;5091887;28;1399;-85
2022/01/22 12:10:43;;;;;;;;;;;;;;;;;;5113529;27;1951;-83
2022/01/22 12:16:12;;;;;;;;;;;;;;;;;;5105603;28;1020;-85
2022/01/22 12:19:00;;;;;;;;;;;;;;;;;;5113783;28;1203;-89
2022/01/22 12:21:54;;;;;;;;;;;;;;;;;;5122458;27;1368;-83
2022/01/22 12:24:30;;;;;;;;;;;;;;;;;;5094731;28;1223;-81
2022/01/22 12:26:59;;;;;;;;;;;;;;;;;;5084552;28;1214;-80
2022/01/22 12:29:32;;;;;;;;;;;;;;;;;;5084484;28;1902;-81
2022/01/22 12:32:05;;;;;;;;;;;;;;;;;;5098375;27;1191;-81
2022/01/22 12:34:49;;;;;;;;;;;;;;;;;;5105075;27;1049;-82
2022/01/22 12:37:19;;;;;;;;;;;;;;;;;;5102590;27;1383;-82
2022/01/22 12:39:49;;;;;;;;;;;;;;;;;;5089388;28;1347;-83
2022/01/22 12:42:23;;;;;;;;;;;;;;;;;;5106278;27;1043;-83
2022/01/22 12:44:56;;;;;;;;;;;;;;;;;;5089231;27;1178;-83
2022/01/22 12:47:21;;;;;;;;;;;;;;;;;;5117541;27;1136;-88
2022/01/22 12:49:59;;;;;;;;;;;;;;;;;;5116040;27;1965;-83
2022/01/22 12:52:26;;;;;;;;;;;;;;;;;;5082775;27;1076;-85
2022/01/22 12:54:56;;;;;;;;;;;;;;;;;;5091412;28;1206;-80
2022/01/22 12:57:24;;;;;;;;;;;;;;;;;;5081393;28;1124;-81
2022/01/22 12:59:53;;;;;;;;;;;;;;;;;;5085932;28;1414;-83
2022/01/22 13:02:24;;;;;;;;;;;;;;;;;;5086829;27;1187;-85
2022/01/22 13:04:57;;;;;;;;;;;;;;;;;;5103523;27;1193;-80
2022/01/22 13:07:24;;;;;;;;;;;;;;;;;;5099220;27;1249;-82
2022/01/22 13:10:05;;;;;;;;;;;;;;;;;;5081785;28;1953;-82
2022/01/22 13:12:31;;;;;;;;;;;;;;;;;;5097252;28;1351;-82
2022/01/22 13:14:59;;;;;;;;;;;;;;;;;;5077502;27;1203;-86
2022/01/22 13:17:29;;;;;;;;;;;;;;;;;;5091603;27;1302;-83
2022/01/22 13:19:54;;;;;;;;;;;;;;;;;;5089061;27;1183;-83
2022/01/22 13:22:23;;;;;;;;;;;;;;;;;;5122633;27;1088;-83
2022/01/22 13:24:48;;;;;;;;;;;;;;;;;;5099359;27;1223;-83
2022/01/22 13:27:19;;;;;;;;;;;;;;;;;;5084002;27;1243;-84
2022/01/22 13:29:53;;;;;;;;;;;;;;;;;;5076472;28;1953;-85
2022/01/22 13:48:33;;;;;;;;;;;;;;;;;;5104844;28;1222;-78
2022/01/22 13:51:00;;;;;;;;;;;;;;;;;;5087785;28;1219;-78
2022/01/22 13:53:27;;;;;;;;;;;;;;;;;;5104455;28;1102;-78
2022/01/22 13:55:59;;;;;;;;;;;;;;;;;;5092086;28;1167;-75
2022/01/22 13:58:25;;;;;;;;;;;;;;;;;;5088008;28;1184;-76
2022/01/22 14:00:51;;;;;;;;;;;;;;;;;;5090536;28;1210;-78
2022/01/22 14:05:51;;;;;;;;;;;;;;;;;;5109712;28;869;-78
2022/01/22 14:08:29;;;;;;;;;;;;;;;;;;5105594;28;881;-78
2022/01/22 14:11:01;;;;;;;;;;;;;;;;;;5089311;28;1373;-76
2022/01/22 14:13:26;;;;;;;;;;;;;;;;;;5105331;28;810;-77
2022/01/22 14:15:52;;;;;;;;;;;;;;;;;;5088980;28;1033;-77
2022/01/22 14:20:52;;;;;;;;;;;;;;;;;;5107635;28;1261;-77
2022/01/22 14:23:23;;;;;;;;;;;;;;;;;;5085760;28;1169;-77
2022/01/22 14:25:59;;;;;;;;;;;;;;;;;;5088822;28;1172;-75
2022/01/22 14:28:45;;;;;;;;;;;;;;;;;;5085917;28;1194;-76
2022/01/22 14:31:27;;;;;;;;;;;;;;;;;;5087384;28;1223;-76
2022/01/22 14:33:53;;;;;;;;;;;;;;;;;;5086408;28;1171;-77
2022/01/22 14:36:25;;;;;;;;;;;;;;;;;;5087983;28;1168;-76
2022/01/22 14:38:57;;;;;;;;;;;;;;;;;;5068892;28;1222;-77
2022/01/22 14:47:01;;;;;;;;;;;;;;;;;;5106581;28;1132;-76
2022/01/22 14:49:28;;;;;;;;;;;;;;;;;;5087243;28;1909;-78
2022/01/22 14:51:56;;;;;;;;;;;;;;;;;;5106590;28;1249;-77
2022/01/22 14:54:23;;;;;;;;;;;;;;;;;;5087961;28;1188;-76
2022/01/22 14:56:53;;;;;;;;;;;;;;;;;;5093543;28;1234;-77
2022/01/22 14:59:23;;;;;;;;;;;;;;;;;;5090179;28;1219;-77
2022/01/22 15:01:52;;;;;;;;;;;;;;;;;;5089205;28;1116;-77
2022/01/22 15:04:18;;;;;;;;;;;;;;;;;;5089613;28;1211;-78
2022/01/22 15:06:44;;;;;;;;;;;;;;;;;;5105439;28;1199;-78
2022/01/22 15:09:10;;;;;;;;;;;;;;;;;;5087893;28;1964;-78
2022/01/22 15:11:35;;;;;;;;;;;;;;;;;;5087692;28;1446;-77
2022/01/22 15:14:02;;;;;;;;;;;;;;;;;;5087324;28;1135;-77
2022/01/22 15:16:35;;;;;;;;;;;;;;;;;;5105660;28;1361;-77
2022/01/22 15:19:02;;;;;;;;;;;;;;;;;;5088644;28;1227;-78
2022/01/22 15:21:28;;;;;;;;;;;;;;;;;;5086891;28;1522;-77
2022/01/22 15:23:54;;;;;;;;;;;;;;;;;;5086139;28;1211;-77
2022/01/22 15:26:19;;;;;;;;;;;;;;;;;;5088629;28;1303;-75
2022/01/22 15:28:45;;;;;;;;;;;;;;;;;;5087324;27;1960;-76
2022/01/22 15:31:17;;;;;;;;;;;;;;;;;;5109224;27;1172;-76
2022/01/22 15:33:53;;;;;;;;;;;;;;;;;;5105676;27;1295;-78
2022/01/22 15:36:18;;;;;;;;;;;;;;;;;;5111112;27;1278;-78
2022/01/22 15:38:44;;;;;;;;;;;;;;;;;;5087581;27;1277;-76
2022/01/22 15:41:09;;;;;;;;;;;;;;;;;;5103473;28;1238;-77
2022/01/22 15:43:34;;;;;;;;;;;;;;;;;;5084712;28;1256;-77
2022/01/22 15:46:00;;;;;;;;;;;;;;;;;;5088509;28;1309;-77
2022/01/22 15:48:29;;;;;;;;;;;;;;;;;;5086230;28;1265;-76
2022/01/22 15:50:55;;;;;;;;;;;;;;;;;;5104549;28;1918;-77
2022/01/22 15:53:28;;;;;;;;;;;;;;;;;;5086422;28;1398;-77
2022/01/22 15:55:54;;;;;;;;;;;;;;;;;;5106232;28;1186;-77
2022/01/22 15:58:19;;;;;;;;;;;;;;;;;;5083264;28;1203;-77
2022/01/22 16:00:44;;;;;;;;;;;;;;;;;;5084278;28;1052;-76
2022/01/22 16:03:10;;;;;;;;;;;;;;;;;;5084292;28;1139;-77
2022/01/22 16:05:36;;;;;;;;;;;;;;;;;;5083493;28;1175;-76
2022/01/22 16:08:02;;;;;;;;;;;;;;;;;;5082585;28;1159;-77
2022/01/22 16:10:30;;;;;;;;;;;;;;;;;;5081074;28;1956;-77
2022/01/22 16:12:56;;;;;;;;;;;;;;;;;;5080895;28;1274;-77
2022/01/22 16:15:21;;;;;;;;;;;;;;;;;;5066203;28;1242;-76
2022/01/22 16:17:47;;;;;;;;;;;;;;;;;;5077037;28;1127;-76
2022/01/22 16:20:12;;;;;;;;;;;;;;;;;;5082383;28;1198;-78
2022/01/22 16:22:38;;;;;;;;;;;;;;;;;;5089288;28;1328;-78
2022/01/22 16:25:04;;;;;;;;;;;;;;;;;;5070298;28;1254;-78
2022/01/22 16:27:33;;;;;;;;;;;;;;;;;;5084619;28;1250;-78
2022/01/22 16:29:59;;;;;;;;;;;;;;;;;;5061464;28;1952;-79
2022/01/22 16:32:25;;;;;;;;;;;;;;;;;;5089429;28;1265;-78
2022/01/22 16:34:51;;;;;;;;;;;;;;;;;;5098319;28;1281;-78
2022/01/22 16:37:16;;;;;;;;;;;;;;;;;;5092408;28;1052;-79
2022/01/22 16:39:42;;;;;;;;;;;;;;;;;;5076973;28;1380;-79
2022/01/22 16:42:08;;;;;;;;;;;;;;;;;;5079678;28;1430;-78
2022/01/22 16:44:42;;;;;;;;;;;;;;;;;;5060867;28;1333;-78
2022/01/22 16:55:41;;;;;;;;;;;;;;;;;;5039088;28;1347;-78
2022/01/22 16:58:09;;;;;;;;;;;;;;;;;;5064268;28;1181;-78
2022/01/22 17:00:39;;;;;;;;;;;;;;;;;;5078933;28;1330;-78
2022/01/22 17:03:08;;;;;;;;;;;;;;;;;;5103919;28;1150;-79
2022/01/22 17:05:38;;;;;;;;;;;;;;;;;;5082234;28;1219;-78
2022/01/22 17:15:54;;;;;;;;;;;;;;;;;;5104157;27;991;-80
2022/01/22 17:18:19;;;;;;;;;;;;;;;;;;5104160;27;1247;-79
2022/01/22 17:20:44;;;;;;;;;;;;;;;;;;5084731;27;1179;-78
2022/01/22 17:23:09;;;;;;;;;;;;;;;;;;5077751;28;1242;-78
2022/01/22 17:25:36;;;;;;;;;;;;;;;;;;5067074;28;1290;-78
2022/01/22 17:28:04;;;;;;;;;;;;;;;;;;5086000;28;1191;-78
2022/01/22 17:30:30;;;;;;;;;;;;;;;;;;5094902;27;1936;-77
2022/01/22 17:32:56;;;;;;;;;;;;;;;;;;5100959;27;1360;-77
2022/01/22 17:35:21;;;;;;;;;;;;;;;;;;5089558;27;1342;-76
2022/01/22 17:37:47;;;;;;;;;;;;;;;;;;5097708;28;1335;-77
2022/01/22 17:40:12;;;;;;;;;;;;;;;;;;5084172;28;1226;-77
2022/01/22 17:42:38;;;;;;;;;;;;;;;;;;5092337;27;1128;-78
2022/01/22 17:45:09;;;;;;;;;;;;;;;;;;5066298;28;1267;-78
2022/01/22 17:47:37;;;;;;;;;;;;;;;;;;5101217;28;1172;-78
2022/01/22 17:50:04;;;;;;;;;;;;;;;;;;5085935;28;1937;-76
2022/01/22 17:52:30;;;;;;;;;;;;;;;;;;5081348;28;1334;-78
2022/01/22 17:54:55;;;;;;;;;;;;;;;;;;5082957;28;1309;-77
2022/01/22 17:57:20;;;;;;;;;;;;;;;;;;5079956;28;1331;-78
2022/01/22 17:59:46;;;;;;;;;;;;;;;;;;5070648;27;1284;-78
2022/01/22 18:02:11;;;;;;;;;;;;;;;;;;5086238;27;1294;-78
2022/01/22 18:04:42;;;;;;;;;;;;;;;;;;5118999;27;1155;-78
2022/01/22 18:07:07;;;;;;;;;;;;;;;;;;5094713;27;1186;-78
2022/01/22 18:09:32;;;;;;;;;;;;;;;;;;5109991;27;1989;-79
2022/01/22 18:11:58;;;;;;;;;;;;;;;;;;5107748;27;1293;-79
2022/01/22 18:14:23;;;;;;;;;;;;;;;;;;5109820;27;1790;-79
2022/01/22 18:16:49;;;;;;;;;;;;;;;;;;5091479;27;1300;-79
2022/01/22 18:19:15;;;;;;;;;;;;;;;;;;5091900;27;1383;-78
2022/01/22 18:21:41;;;;;;;;;;;;;;;;;;5103735;27;1144;-81
2022/01/22 18:24:07;;;;;;;;;;;;;;;;;;5071412;28;1324;-79
2022/01/22 18:26:33;;;;;;;;;;;;;;;;;;5086659;28;1101;-77
2022/01/22 18:28:58;;;;;;;;;;;;;;;;;;5103766;28;1916;-78
2022/01/22 18:31:24;;;;;;;;;;;;;;;;;;5087784;28;1386;-78
2022/01/22 18:33:51;;;;;;;;;;;;;;;;;;5092780;27;1301;-79
2022/01/22 18:36:17;;;;;;;;;;;;;;;;;;5108995;27;1162;-78
2022/01/22 18:38:42;;;;;;;;;;;;;;;;;;5097433;28;1263;-79
2022/01/22 18:41:07;;;;;;;;;;;;;;;;;;5108167;28;1137;-77
2022/01/22 18:43:38;;;;;;;;;;;;;;;;;;5093494;27;1372;-77
2022/01/22 18:46:11;;;;;;;;;;;;;;;;;;5089032;27;1219;-77
2022/01/22 18:48:42;;;;;;;;;;;;;;;;;;5107584;27;1345;-78
2022/01/22 18:51:08;;;;;;;;;;;;;;;;;;5128432;27;1175;-78
2022/01/22 18:53:34;;;;;;;;;;;;;;;;;;5124065;27;1246;-78
2022/01/22 18:56:00;;;;;;;;;;;;;;;;;;5094086;28;1261;-77
2022/01/22 18:58:25;;;;;;;;;;;;;;;;;;5088071;28;1250;-77
2022/01/22 19:00:51;;;;;;;;;;;;;;;;;;5093557;27;1143;-78
2022/01/22 19:03:16;;;;;;;;;;;;;;;;;;5108741;27;1464;-77
2022/01/22 19:05:43;;;;;;;;;;;;;;;;;;5108113;27;1485;-77
2022/01/22 19:08:09;;;;;;;;;;;;;;;;;;5105317;27;1178;-77
2022/01/22 19:10:34;;;;;;;;;;;;;;;;;;5091822;27;1918;-77
2022/01/22 19:13:00;;;;;;;;;;;;;;;;;;5088733;28;1140;-77
2022/01/22 19:15:25;;;;;;;;;;;;;;;;;;5098007;27;1124;-77
2022/01/22 19:17:50;;;;;;;;;;;;;;;;;;5078729;28;1182;-77
2022/01/22 19:20:17;;;;;;;;;;;;;;;;;;5072119;28;1325;-77
2022/01/22 19:25:31;;;;;;;;;;;;;;;;;;5107328;28;1039;-77
2022/01/22 19:28:07;;;;;;;;;;;;;;;;;;5084557;28;1439;-78
2022/01/22 19:30:44;;;;;;;;;;;;;;;;;;5088771;28;1900;-76
2022/01/22 19:33:11;;;;;;;;;;;;;;;;;;5087139;28;1440;-75
2022/01/22 19:35:37;;;;;;;;;;;;;;;;;;5119659;27;1302;-75
2022/01/22 19:38:04;;;;;;;;;;;;;;;;;;5105089;27;1401;-75